createdAt,value
2023-01-29T00:01:24.223Z,23.50
2023-01-29T00:03:52.406Z,22.92
2023-01-29T00:06:19.337Z,29.75
2023-01-29T00:08:46.866Z,27.15
2023-01-29T00:11:14.036Z,27.42
2023-01-29T00:13:40.875Z,30.13
2023-01-29T00:16:07.854Z,28.73
2023-01-29T00:18:39.080Z,23.98
2023-01-29T00:21:15.250Z,25.02
2023-01-29T00:23:42.637Z,21.40
2023-01-29T00:26:10.489Z,23.13
2023-01-29T00:28:37.270Z,20.80
2023-01-29T00:31:09.346Z,23.67
2023-01-29T00:33:36.369Z,22.38
2023-01-29T00:36:05.322Z,24.92
2023-01-29T00:38:33.079Z,22.50
2023-01-29T00:41:31.695Z,22.90
2023-01-29T00:44:18.258Z,23.40
2023-01-29T00:46:45.393Z,25.42
2023-01-29T00:49:12.565Z,23.52
2023-01-29T00:51:40.081Z,23.63
2023-01-29T00:54:07.154Z,23.08
2023-01-29T00:56:37.944Z,21.42
2023-01-29T00:59:05.072Z,26.33
2023-01-29T01:01:50.636Z,21.33
2023-01-29T01:04:17.430Z,24.92
2023-01-29T01:06:44.267Z,22.75
2023-01-29T01:09:30.173Z,26.27
2023-01-29T01:11:56.999Z,23.70
2023-01-29T01:14:23.778Z,22.83
2023-01-29T01:16:50.688Z,21.02
2023-01-29T01:19:17.706Z,28.80
2023-01-29T01:21:47.056Z,25.95
2023-01-29T01:24:14.324Z,22.70
2023-01-29T01:29:07.758Z,22.85
2023-01-29T01:31:34.781Z,21.48
2023-01-29T01:34:01.681Z,21.17
2023-01-29T01:36:28.475Z,23.85
2023-01-29T01:38:55.295Z,25.92
2023-01-29T01:41:24.047Z,24.98
2023-01-29T01:44:02.203Z,21.38
2023-01-29T01:46:30.780Z,21.55
2023-01-29T01:49:19.295Z,21.58
2023-01-29T01:51:50.509Z,20.60
2023-01-29T01:54:28.939Z,22.13
2023-01-29T01:57:09.202Z,23.83
2023-01-29T01:59:41.149Z,22.02
2023-01-29T02:02:26.429Z,21.52
2023-01-29T02:05:13.135Z,24.98
2023-01-29T02:08:07.688Z,22.05
2023-01-29T02:10:46.748Z,21.05
2023-01-29T02:13:16.659Z,20.42
2023-01-29T02:15:46.842Z,24.42
2023-01-29T02:18:17.857Z,24.42
2023-01-29T02:20:50.072Z,22.92
2023-01-29T02:23:31.783Z,20.95
2023-01-29T02:26:01.440Z,22.30
2023-01-29T02:28:36.594Z,20.88
2023-01-29T02:31:25.069Z,20.02
2023-01-29T02:34:17.966Z,19.13
2023-01-29T02:37:10.514Z,21.75
2023-01-29T02:39:40.220Z,19.48
2023-01-29T02:42:31.217Z,20.15
2023-01-29T02:44:57.965Z,18.85
2023-01-29T02:47:27.829Z,20.98
2023-01-29T02:50:03.699Z,18.40
2023-01-29T02:52:51.540Z,21.05
2023-01-29T02:55:44.526Z,20.17
2023-01-29T02:58:20.664Z,21.13
2023-01-29T03:00:49.168Z,20.70
2023-01-29T03:03:41.330Z,21.73
2023-01-29T03:06:20.329Z,20.52
2023-01-29T03:09:00.933Z,19.63
2023-01-29T03:11:51.752Z,20.90
2023-01-29T03:14:55.358Z,24.02
2023-01-29T03:17:27.846Z,23.05
2023-01-29T03:19:54.810Z,19.55
2023-01-29T03:22:23.364Z,21.42
2023-01-29T03:25:14.042Z,21.25
2023-01-29T03:28:06.416Z,19.30
2023-01-29T03:30:55.180Z,22.48
2023-01-29T03:33:26.102Z,19.55
2023-01-29T03:36:07.766Z,20.38
2023-01-29T03:38:34.691Z,21.83
2023-01-29T03:41:21.746Z,20.00
2023-01-29T03:43:59.696Z,19.20
2023-01-29T03:46:32.718Z,20.23
2023-01-29T03:49:02.590Z,19.75
2023-01-29T03:51:38.317Z,21.67
2023-01-29T03:54:08.846Z,22.60
2023-01-29T03:57:25.327Z,18.80
2023-01-29T04:00:16.503Z,19.63
2023-01-29T04:02:56.968Z,19.20
2023-01-29T04:05:29.155Z,19.05
2023-01-29T04:08:05.208Z,22.73
2023-01-29T04:10:36.096Z,20.00
2023-01-29T04:13:09.003Z,22.92
2023-01-29T04:15:44.060Z,20.27
2023-01-29T04:18:11.295Z,19.17
2023-01-29T04:20:38.439Z,19.23
2023-01-29T04:23:21.543Z,21.45
2023-01-29T04:26:12.428Z,23.45
2023-01-29T04:28:57.802Z,19.52
2023-01-29T04:31:31.486Z,22.08
2023-01-29T04:34:10.521Z,20.52
2023-01-29T04:37:19.502Z,21.30
2023-01-29T04:40:00.178Z,21.05
2023-01-29T04:42:44.729Z,23.30
2023-01-29T04:45:35.665Z,20.02
2023-01-29T04:48:17.495Z,23.80
2023-01-29T04:51:08.476Z,18.90
2023-01-29T04:53:38.302Z,22.23
2023-01-29T04:56:24.616Z,21.20
2023-01-29T04:59:07.045Z,20.30
2023-01-29T05:01:35.712Z,23.63
2023-01-29T05:04:08.687Z,21.42
2023-01-29T05:06:36.964Z,21.90
2023-01-29T05:09:03.840Z,20.60
2023-01-29T05:11:33.062Z,20.65
2023-01-29T05:14:03.837Z,21.52
2023-01-29T05:16:41.852Z,18.95
2023-01-29T05:19:13.485Z,21.75
2023-01-29T05:21:43.379Z,20.30
2023-01-29T05:24:24.755Z,19.33
2023-01-29T05:27:12.715Z,19.25
2023-01-29T05:29:47.022Z,21.58
2023-01-29T05:32:14.667Z,19.77
2023-01-29T05:34:41.723Z,19.73
2023-01-29T05:37:10.084Z,20.92
2023-01-29T05:39:36.887Z,20.80
2023-01-29T05:42:03.778Z,21.48
2023-01-29T05:44:30.612Z,20.70
2023-01-29T05:46:57.477Z,22.80
2023-01-29T05:49:24.532Z,20.67
2023-01-29T05:51:51.327Z,22.58
2023-01-29T05:54:18.078Z,24.30
2023-01-29T05:56:44.939Z,20.88
2023-01-29T05:59:11.663Z,20.98
2023-01-29T06:01:38.539Z,17.80
2023-01-29T06:04:05.352Z,21.85
2023-01-29T06:06:32.169Z,21.13
2023-01-29T06:08:58.948Z,22.00
2023-01-29T06:11:26.200Z,21.17
2023-01-29T06:13:52.987Z,24.08
2023-01-29T06:16:19.883Z,19.50
2023-01-29T06:18:46.713Z,19.33
2023-01-29T06:21:14.402Z,23.65
2023-01-29T06:23:41.680Z,21.52
2023-01-29T06:28:38.616Z,22.60
2023-01-29T06:33:53.494Z,23.52
2023-01-29T06:36:20.272Z,22.67
2023-01-29T06:38:47.352Z,22.27
2023-01-29T06:41:18.091Z,22.25
2023-01-29T06:43:45.674Z,21.23
2023-01-29T06:46:12.763Z,23.58
2023-01-29T06:48:39.690Z,21.17
2023-01-29T06:51:08.453Z,20.15
2023-01-29T06:53:36.311Z,21.27
2023-01-29T06:56:04.424Z,20.65
2023-01-29T06:58:31.427Z,20.42
2023-01-29T07:01:10.469Z,23.08
2023-01-29T07:03:37.854Z,20.08
2023-01-29T07:08:32.048Z,20.15
2023-01-29T07:11:00.492Z,23.40
2023-01-29T07:13:27.384Z,22.35
2023-01-29T07:15:54.256Z,21.35
2023-01-29T07:18:21.083Z,23.23
2023-01-29T07:20:47.924Z,19.05
2023-01-29T07:23:15.367Z,20.95
2023-01-29T07:25:42.438Z,23.17
2023-01-29T07:28:09.292Z,25.23
2023-01-29T07:30:36.178Z,21.63
2023-01-29T07:33:09.083Z,22.25
2023-01-29T07:35:40.476Z,23.15
2023-01-29T07:38:08.482Z,24.02
2023-01-29T07:40:35.474Z,23.05
2023-01-29T07:43:04.538Z,27.55
2023-01-29T07:45:31.492Z,20.90
2023-01-29T07:47:58.265Z,23.63
2023-01-29T07:50:26.127Z,22.40
2023-01-29T07:52:55.031Z,23.35
2023-01-29T07:55:22.041Z,25.42
2023-01-29T07:57:54.852Z,25.27
2023-01-29T08:00:22.011Z,21.27
2023-01-29T08:02:48.828Z,20.38
2023-01-29T08:05:15.671Z,23.15
2023-01-29T08:07:42.514Z,21.95
2023-01-29T08:10:10.269Z,24.50
2023-01-29T08:12:37.039Z,26.42
2023-01-29T08:15:04.103Z,22.00
2023-01-29T08:17:30.904Z,21.10
2023-01-29T08:19:57.684Z,24.38
2023-01-29T08:22:24.485Z,22.73
2023-01-29T08:24:54.064Z,22.92
2023-01-29T08:27:26.840Z,23.25
2023-01-29T08:29:53.685Z,24.45
2023-01-29T08:32:20.464Z,21.65
2023-01-29T08:34:47.402Z,26.10
2023-01-29T08:37:14.163Z,24.65
2023-01-29T08:42:12.704Z,25.50
2023-01-29T08:44:39.453Z,24.00
2023-01-29T08:47:06.671Z,25.00
2023-01-29T08:49:33.414Z,21.90
2023-01-29T08:52:02.392Z,23.58
2023-01-29T08:54:29.832Z,28.23
2023-01-29T08:56:56.638Z,25.45
2023-01-29T08:59:23.579Z,22.85
2023-01-29T09:01:50.409Z,27.63
2023-01-29T09:04:17.155Z,24.65
2023-01-29T09:06:43.941Z,24.42
2023-01-29T09:09:11.895Z,26.98
2023-01-29T09:11:40.551Z,24.90
2023-01-29T09:14:07.498Z,30.45
2023-01-29T09:16:34.381Z,25.52
2023-01-29T09:19:01.161Z,23.67
2023-01-29T09:21:27.920Z,26.02
2023-01-29T09:23:54.708Z,25.45
2023-01-29T09:26:21.524Z,25.17
2023-01-29T09:28:48.280Z,23.58
2023-01-29T09:31:15.150Z,23.52
2023-01-29T09:33:41.970Z,26.73
2023-01-29T09:36:09.148Z,23.25
2023-01-29T09:38:35.951Z,23.92
2023-01-29T09:41:19.184Z,20.48
2023-01-29T09:43:56.714Z,21.73
2023-01-29T09:46:28.030Z,18.20
2023-01-29T09:49:11.062Z,20.42
2023-01-29T09:51:41.974Z,17.65
2023-01-29T09:54:28.470Z,21.73
2023-01-29T09:56:57.263Z,17.90
2023-01-29T09:59:27.100Z,20.52
2023-01-29T10:02:00.698Z,16.88
2023-01-29T10:05:00.090Z,15.43
2023-01-29T10:07:38.774Z,19.25
2023-01-29T10:10:29.520Z,16.90
2023-01-29T10:13:15.508Z,16.48
2023-01-29T10:16:09.779Z,16.85
2023-01-29T10:18:50.489Z,16.63
2023-01-29T10:21:19.957Z,14.93
2023-01-29T10:23:54.065Z,13.88
2023-01-29T10:26:26.326Z,16.20
2023-01-29T10:28:57.183Z,14.77
2023-01-29T10:31:27.984Z,15.10
2023-01-29T10:34:04.659Z,16.88
2023-01-29T10:36:43.215Z,13.95
2023-01-29T10:39:25.340Z,11.80
2023-01-29T10:42:03.837Z,16.27
2023-01-29T10:44:46.429Z,13.45
2023-01-29T10:47:55.348Z,12.38
2023-01-29T10:50:36.586Z,13.77
2023-01-29T10:53:27.700Z,15.10
2023-01-29T10:56:13.920Z,14.63
2023-01-29T10:59:09.189Z,14.35
2023-01-29T11:01:36.036Z,14.00
2023-01-29T11:04:06.267Z,15.15
2023-01-29T11:06:35.283Z,13.70
2023-01-29T11:09:08.069Z,13.00
2023-01-29T11:11:39.457Z,15.18
2023-01-29T11:14:12.322Z,14.65
2023-01-29T11:16:48.435Z,14.02
2023-01-29T11:19:16.314Z,16.23
2023-01-29T11:21:59.074Z,15.48
2023-01-29T11:24:26.644Z,14.95
2023-01-29T11:26:59.739Z,14.20
2023-01-29T11:29:43.615Z,13.32
2023-01-29T11:32:25.576Z,14.70
2023-01-29T11:35:04.427Z,15.55
2023-01-29T11:37:39.546Z,16.60
2023-01-29T11:40:35.130Z,14.48
2023-01-29T11:43:21.342Z,16.02
2023-01-29T11:45:55.964Z,16.75
2023-01-29T11:48:30.299Z,16.02
2023-01-29T11:51:00.787Z,16.45
2023-01-29T11:53:45.503Z,15.52
2023-01-29T11:56:24.573Z,15.65
2023-01-29T11:58:55.405Z,14.20
2023-01-29T12:01:42.250Z,18.58
2023-01-29T12:04:21.659Z,18.77
2023-01-29T12:06:52.535Z,18.40
2023-01-29T12:09:29.556Z,17.20
2023-01-29T12:12:16.287Z,18.45
2023-01-29T12:14:44.446Z,18.30
2023-01-29T12:17:25.570Z,17.15
2023-01-29T12:20:06.508Z,17.95
2023-01-29T12:22:45.321Z,18.80
2023-01-29T12:25:36.858Z,19.83
2023-01-29T12:28:30.518Z,17.58
2023-01-29T12:31:54.755Z,19.75
2023-01-29T12:34:21.519Z,19.52
2023-01-29T12:37:11.877Z,17.25
2023-01-29T12:39:38.667Z,18.17
2023-01-29T12:42:19.141Z,16.65
2023-01-29T12:45:01.490Z,17.30
2023-01-29T12:47:38.745Z,16.15
2023-01-29T12:50:26.315Z,16.48
2023-01-29T12:53:31.487Z,18.05
2023-01-29T12:56:03.153Z,17.95
2023-01-29T12:58:35.535Z,15.43
2023-01-29T13:01:28.473Z,17.45
2023-01-29T13:04:13.877Z,14.52
2023-01-29T13:06:45.797Z,15.68
2023-01-29T13:09:17.334Z,15.48
2023-01-29T13:12:14.641Z,14.80
2023-01-29T13:14:50.454Z,15.25
2023-01-29T13:17:47.566Z,14.02
2023-01-29T13:20:34.092Z,16.30
2023-01-29T13:23:28.513Z,16.10
2023-01-29T13:25:55.535Z,15.63
2023-01-29T13:31:14.814Z,16.77
2023-01-29T13:33:51.290Z,15.43
2023-01-29T13:36:24.635Z,16.42
2023-01-29T13:39:02.955Z,15.48
2023-01-29T13:41:41.682Z,18.38
2023-01-29T13:44:23.239Z,17.55
2023-01-29T13:46:57.847Z,18.23
2023-01-29T13:49:35.703Z,17.05
2023-01-29T13:52:23.318Z,17.23
2023-01-29T13:54:53.668Z,18.90
2023-01-29T13:57:46.042Z,17.25
2023-01-29T14:00:21.824Z,25.05
2023-01-29T14:03:08.816Z,19.92
2023-01-29T14:05:44.038Z,17.55
2023-01-29T14:08:15.061Z,19.05
2023-01-29T14:10:43.536Z,20.00
2023-01-29T14:13:18.094Z,17.40
2023-01-29T14:15:46.585Z,17.27
2023-01-29T14:18:24.761Z,17.95
2023-01-29T14:20:58.460Z,16.45
2023-01-29T14:23:46.709Z,18.45
2023-01-29T14:26:33.281Z,18.65
2023-01-29T14:29:25.588Z,16.10
2023-01-29T14:32:08.443Z,19.25
2023-01-29T14:35:10.648Z,16.15
2023-01-29T14:37:41.515Z,19.25
2023-01-29T14:40:11.220Z,17.33
2023-01-29T14:42:47.143Z,15.93
2023-01-29T14:45:23.255Z,17.08
2023-01-29T14:47:49.962Z,16.80
2023-01-29T14:50:37.863Z,17.50
2023-01-29T14:53:13.819Z,17.58
2023-01-29T14:55:48.323Z,17.15
2023-01-29T14:58:19.805Z,17.17
2023-01-29T15:00:52.616Z,14.25
2023-01-29T15:03:28.366Z,17.67
2023-01-29T15:05:59.013Z,19.42
2023-01-29T15:08:32.737Z,18.38
2023-01-29T15:11:35.425Z,20.35
2023-01-29T15:14:44.435Z,18.75
2023-01-29T15:17:30.133Z,19.70
2023-01-29T15:19:58.076Z,21.00
2023-01-29T15:22:29.863Z,21.95
2023-01-29T15:25:07.377Z,23.08
2023-01-29T15:27:34.990Z,20.25
2023-01-29T15:30:08.011Z,18.23
2023-01-29T15:32:39.139Z,18.98
2023-01-29T15:35:10.164Z,19.05
2023-01-29T15:37:37.555Z,21.10
2023-01-29T15:40:12.317Z,19.33
2023-01-29T15:42:48.577Z,19.83
2023-01-29T15:45:23.743Z,20.38
2023-01-29T15:47:51.801Z,22.55
2023-01-29T15:50:18.867Z,22.13
2023-01-29T15:55:16.107Z,25.50
2023-01-29T15:57:45.128Z,22.35
2023-01-29T16:00:27.267Z,22.70
2023-01-29T16:02:54.830Z,19.83
2023-01-29T16:05:26.624Z,19.55
2023-01-29T16:07:55.635Z,22.90
2023-01-29T16:10:28.344Z,21.05
2023-01-29T16:12:55.886Z,24.55
2023-01-29T16:15:31.465Z,23.08
2023-01-29T16:18:00.131Z,20.85
2023-01-29T16:20:51.544Z,22.60
2023-01-29T16:23:25.472Z,22.45
2023-01-29T16:25:52.383Z,23.75
2023-01-29T16:28:19.711Z,21.73
2023-01-29T16:30:46.830Z,23.50
2023-01-29T16:33:17.260Z,22.38
2023-01-29T16:35:52.047Z,24.48
2023-01-29T16:38:32.679Z,23.02
2023-01-29T16:41:14.684Z,24.30
2023-01-29T16:43:44.458Z,21.40
2023-01-29T16:46:26.164Z,23.55
2023-01-29T16:48:53.649Z,23.10
2023-01-29T16:51:39.860Z,23.95
2023-01-29T16:56:36.312Z,24.48
2023-01-29T16:59:05.560Z,23.75
2023-01-29T17:01:35.078Z,22.50
2023-01-29T17:04:05.845Z,23.83
2023-01-29T17:06:33.386Z,24.60
2023-01-29T17:09:00.874Z,22.63
2023-01-29T17:11:37.740Z,21.35
2023-01-29T17:14:07.567Z,26.20
2023-01-29T17:16:48.807Z,24.65
2023-01-29T17:19:20.905Z,26.70
2023-01-29T17:21:47.921Z,24.40
2023-01-29T17:24:14.938Z,27.75
2023-01-29T17:26:42.287Z,24.77
2023-01-29T17:29:25.038Z,24.80
2023-01-29T17:31:51.864Z,25.50
2023-01-29T17:34:18.985Z,25.23
2023-01-29T17:39:18.127Z,26.95
2023-01-29T17:41:52.203Z,31.52
2023-01-29T17:44:19.366Z,32.75
2023-01-29T17:46:47.460Z,31.42
2023-01-29T17:49:28.728Z,29.40
2023-01-29T17:51:57.048Z,30.65
2023-01-29T17:54:25.596Z,27.80
2023-01-29T17:56:53.323Z,30.55
2023-01-29T17:59:24.923Z,29.13
2023-01-29T18:01:52.100Z,29.98
2023-01-29T18:04:19.199Z,30.70
2023-01-29T18:06:48.694Z,33.35
2023-01-29T18:09:18.782Z,30.65
2023-01-29T18:11:45.792Z,30.73
2023-01-29T18:14:14.393Z,37.25
2023-01-29T18:16:43.317Z,34.75
2023-01-29T18:19:23.657Z,32.00
2023-01-29T18:21:50.720Z,32.22
2023-01-29T18:24:18.973Z,38.60
2023-01-29T18:26:45.884Z,31.65
2023-01-29T18:29:12.934Z,36.78
2023-01-29T18:31:39.749Z,31.98
2023-01-29T18:34:06.652Z,33.63
2023-01-29T18:36:33.538Z,31.35
2023-01-29T18:39:00.357Z,31.98
2023-01-29T18:41:27.287Z,37.90
2023-01-29T18:43:54.243Z,32.40
2023-01-29T18:46:22.384Z,31.40
2023-01-29T18:48:49.202Z,35.00
2023-01-29T18:51:15.964Z,34.05
2023-01-29T18:53:42.794Z,33.80
2023-01-29T18:56:10.908Z,34.13
2023-01-29T18:58:37.721Z,32.30
2023-01-29T19:01:09.447Z,34.17
2023-01-29T19:03:36.840Z,33.40
2023-01-29T19:08:31.036Z,32.90
2023-01-29T19:11:02.104Z,33.40
2023-01-29T19:13:32.600Z,34.88
2023-01-29T19:15:59.532Z,35.53
2023-01-29T19:18:27.292Z,36.53
2023-01-29T19:20:54.408Z,38.80
2023-01-29T19:25:48.225Z,39.85
2023-01-29T19:28:16.279Z,34.97
2023-01-29T19:30:43.531Z,41.97
2023-01-29T19:33:10.981Z,36.30
2023-01-29T19:35:37.774Z,36.25
2023-01-29T19:38:04.809Z,36.63
2023-01-29T19:40:31.612Z,35.03
2023-01-29T19:42:58.757Z,39.88
2023-01-29T19:48:14.645Z,38.60
2023-01-29T19:50:42.403Z,38.22
2023-01-29T19:53:09.827Z,38.88
2023-01-29T19:55:36.682Z,38.55
2023-01-29T19:58:04.749Z,38.03
2023-01-29T20:00:31.670Z,43.83
2023-01-29T20:02:58.467Z,39.50
2023-01-29T20:05:27.027Z,42.42
2023-01-29T20:07:53.923Z,36.53
2023-01-29T20:10:21.223Z,37.85
2023-01-29T20:12:48.297Z,38.95
2023-01-29T20:15:15.551Z,37.03
2023-01-29T20:20:10.013Z,35.80
2023-01-29T20:22:36.824Z,36.42
2023-01-29T20:25:04.204Z,35.67
2023-01-29T20:27:31.012Z,40.78
2023-01-29T20:29:58.067Z,36.08
2023-01-29T20:32:24.963Z,40.55
2023-01-29T20:34:52.485Z,41.58
2023-01-29T20:37:19.710Z,38.25
2023-01-29T20:39:46.816Z,41.40
2023-01-29T20:42:13.820Z,40.00
2023-01-29T20:44:40.643Z,43.03
2023-01-29T20:47:08.519Z,36.92
2023-01-29T20:49:35.375Z,40.03
2023-01-29T20:52:02.268Z,42.58
2023-01-29T20:54:30.119Z,46.00
2023-01-29T20:56:57.155Z,46.03
2023-01-29T20:59:24.040Z,40.58
2023-01-29T21:01:50.972Z,45.25
2023-01-29T21:04:17.841Z,45.28
2023-01-29T21:06:44.680Z,46.15
2023-01-29T21:09:11.481Z,46.10
2023-01-29T21:11:38.232Z,46.30
2023-01-29T21:14:05.421Z,44.97
2023-01-29T21:18:59.487Z,45.08
2023-01-29T21:21:26.777Z,44.63
2023-01-29T21:23:54.314Z,47.47
2023-01-29T21:26:23.202Z,46.30
2023-01-29T21:28:50.028Z,41.50
2023-01-29T21:31:17.655Z,43.53
2023-01-29T21:33:44.950Z,44.30
2023-01-29T21:38:40.445Z,43.80
2023-01-29T21:41:09.979Z,43.45
2023-01-29T21:43:37.311Z,45.85
2023-01-29T21:46:11.575Z,46.95
2023-01-29T21:48:39.425Z,45.80
2023-01-29T21:51:07.200Z,42.70
2023-01-29T21:53:34.333Z,39.65
2023-01-29T21:56:02.639Z,44.20
2023-01-29T21:58:29.823Z,45.20
2023-01-29T22:00:57.047Z,43.03
2023-01-29T22:03:46.107Z,38.78
2023-01-29T22:06:13.913Z,40.42
2023-01-29T22:08:40.765Z,41.47
2023-01-29T22:11:08.123Z,37.95
2023-01-29T22:16:02.105Z,37.50
2023-01-29T22:18:28.967Z,36.80
2023-01-29T22:20:56.647Z,37.40
2023-01-29T22:23:24.116Z,39.28
2023-01-29T22:25:50.996Z,39.50
2023-01-29T22:28:18.542Z,42.00
2023-01-29T22:30:45.530Z,37.20
2023-01-29T22:33:12.394Z,39.13
2023-01-29T22:35:39.185Z,36.42
2023-01-29T22:38:06.508Z,35.97
2023-01-29T22:40:33.302Z,38.92
2023-01-29T22:43:00.190Z,35.63
2023-01-29T22:45:27.359Z,34.58
2023-01-29T22:50:21.066Z,33.65
2023-01-29T22:52:53.925Z,39.05
2023-01-29T22:55:21.269Z,36.30
2023-01-29T22:57:51.168Z,40.47
2023-01-29T23:00:18.799Z,35.22
2023-01-29T23:02:49.389Z,39.75
2023-01-29T23:05:17.208Z,40.92
2023-01-29T23:07:44.422Z,37.72
2023-01-29T23:12:42.031Z,39.65
2023-01-29T23:15:09.162Z,38.47
2023-01-29T23:17:36.009Z,42.72
2023-01-29T23:20:03.665Z,36.35
2023-01-29T23:22:30.417Z,39.30
2023-01-29T23:24:57.178Z,37.55
2023-01-29T23:27:24.108Z,33.95
2023-01-29T23:29:50.840Z,31.42
2023-01-29T23:32:19.684Z,37.65
2023-01-29T23:34:46.604Z,35.08
2023-01-29T23:37:13.477Z,33.42
2023-01-29T23:39:40.332Z,31.83
2023-01-29T23:42:07.205Z,32.08
2023-01-29T23:44:33.983Z,33.70
2023-01-29T23:47:00.745Z,32.92
2023-01-29T23:49:27.473Z,35.72
2023-01-29T23:51:54.331Z,32.78
2023-01-29T23:54:21.105Z,36.67
2023-01-29T23:56:47.944Z,33.08
2023-01-29T23:59:15.295Z,35.47
